Darstellungsparameter: Aktuell verwendete Einstellungen:
Skalierung der Graphiken ... ?
xyx+y,   Skalierungsfaktor:      Skalierung: Modus: x, Faktor: 1
Darstellungszeitraum ... ?
Vom - - bis: - -   Zeitraum: 03.05.2019 - 03.05.2019
Min/Max/Avg-Anzeige ... ?
Zeige MMA aktuell
Zeige MMA Monat
Zeige MMA alles
Zeige --A aktuell
Zeige --A Monat
Zeige --A alles
Keine MMA-Anzeige
MMA:
Average (ber die Originaldaten)
MMA-Basis: 03.05.2019 - 03.05.2019
Quicknavigation für Darstellung... ?
Tage:      1T, 2T, 3T, 5T -1T -2T -3T -5T +1T +2T +3T +5T
Wochen: 1W, 2W, 3W -1W -2W -3W +1W +2W +3W
Monate: 1M, 3M, 6M -1M -3M -6M +1M +3M +6M
Jahre:    1J, 3J, 5J, 10J -1J -3J -5J -10J +1J +3J +5J +10J
Nutze für die Darstellung ... ?
Originaldaten oder Mittelwerte auf ...
Stundenbasis Tagesbasis Wochenbasis
Monatsbasis Jahresbasis      Datenbasis: Original-Daten
Darstellen als:
Statistik (Auto) Statistik J:M      Darstellung:
Zur Graphik,    zurück zur Übersicht aller Sensoren.
 
Tabellarische Datenbersicht: ?
 
Sensor: Nr:Datum:Temp:Abs-Feuchte:Windchill:Wind:
Aussen-T/F 1 03-05-2019 00:00:00 10.6 C 9.08 g/m*3 10.6 C 0 km/h
2 03-05-2019 00:05:00 10.6 C 9.08 g/m*3 10.6 C 4.8 km/h
3 03-05-2019 00:10:00 10.6 C 9.08 g/m*3 10.6 C 0 km/h
4 03-05-2019 00:15:00 10.6 C 9.08 g/m*3 10.6 C 0 km/h
5 03-05-2019 00:20:00 10.6 C 9.08 g/m*3 10.6 C 0 km/h
6 03-05-2019 00:25:00 10.6 C 9.08 g/m*3 10.6 C 1.6 km/h
7 03-05-2019 00:30:00 10.6 C 9.08 g/m*3 10.6 C 0 km/h
8 03-05-2019 00:35:00 10.6 C 8.98 g/m*3 10.06 C 6.4 km/h
9 03-05-2019 00:40:00 10.6 C 8.98 g/m*3 10.06 C 6.4 km/h
10 03-05-2019 00:45:00 10.6 C 8.88 g/m*3 10.06 C 6.4 km/h
11 03-05-2019 00:50:00 10.6 C 8.88 g/m*3 10.6 C 4.8 km/h
12 03-05-2019 00:55:00 10.6 C 8.88 g/m*3 10.6 C 4.8 km/h
13 03-05-2019 01:00:00 10.6 C 8.78 g/m*3 10.6 C 3.2 km/h
14 03-05-2019 01:05:00 10.7 C 8.84 g/m*3 9.81 C 8.1 km/h
15 03-05-2019 01:10:00 10.6 C 8.69 g/m*3 9.69 C 8.1 km/h
16 03-05-2019 01:15:00 10.6 C 8.59 g/m*3 8.71 C 14.5 km/h
17 03-05-2019 01:20:00 10.6 C 8.49 g/m*3 8.71 C 14.5 km/h
18 03-05-2019 01:25:00 10.6 C 8.49 g/m*3 9.69 C 8.1 km/h
19 03-05-2019 01:30:00 10.6 C 8.39 g/m*3 9.4 C 9.7 km/h
20 03-05-2019 01:35:00 10.5 C 8.34 g/m*3 9.57 C 8.1 km/h
21 03-05-2019 01:40:00 10.4 C 8.19 g/m*3 9.46 C 8.1 km/h
22 03-05-2019 01:45:00 10.4 C 8.19 g/m*3 10.4 C 3.2 km/h
23 03-05-2019 01:50:00 10.3 C 8.04 g/m*3 8.78 C 11.3 km/h
24 03-05-2019 01:55:00 10.3 C 7.95 g/m*3 9.04 C 9.7 km/h
25 03-05-2019 02:00:00 10.3 C 7.95 g/m*3 9.72 C 6.4 km/h
Sensor: Nr:Datum:Temp:Abs-Feuchte:Windchill:Wind:
Aussen-T/F 26 03-05-2019 02:05:00 10.2 C 7.9 g/m*3 9.22 C 8.1 km/h
27 03-05-2019 02:10:00 10.1 C 7.85 g/m*3 8.54 C 11.3 km/h
28 03-05-2019 02:15:00 9.9 C 7.75 g/m*3 8.87 C 8.1 km/h
29 03-05-2019 02:20:00 9.8 C 7.79 g/m*3 8.75 C 8.1 km/h
30 03-05-2019 02:25:00 9.8 C 7.79 g/m*3 8.75 C 8.1 km/h
31 03-05-2019 02:30:00 9.8 C 7.89 g/m*3 9.8 C 1.6 km/h
32 03-05-2019 02:35:00 9.7 C 7.84 g/m*3 9.7 C 1.6 km/h
33 03-05-2019 02:40:00 9.7 C 7.84 g/m*3 9.7 C 0 km/h
34 03-05-2019 02:45:00 9.7 C 7.84 g/m*3 9.7 C 1.6 km/h
35 03-05-2019 02:50:00 9.6 C 7.79 g/m*3 7.48 C 14.5 km/h
36 03-05-2019 02:55:00 9.6 C 7.79 g/m*3 9.6 C 1.6 km/h
37 03-05-2019 03:00:00 9.5 C 7.74 g/m*3 9.5 C 4.8 km/h
38 03-05-2019 03:05:00 9.5 C 7.74 g/m*3 9.5 C 4.8 km/h
39 03-05-2019 03:10:00 9.4 C 7.69 g/m*3 9.4 C 3.2 km/h
40 03-05-2019 03:15:00 9.4 C 7.69 g/m*3 7.97 C 9.7 km/h
41 03-05-2019 03:20:00 9.4 C 7.78 g/m*3 9.4 C 0 km/h
42 03-05-2019 03:25:00 9.4 C 7.78 g/m*3 9.4 C 1.6 km/h
43 03-05-2019 03:30:00 9.4 C 7.78 g/m*3 9.4 C 1.6 km/h
44 03-05-2019 03:35:00 9.3 C 7.73 g/m*3 9.3 C 4.8 km/h
45 03-05-2019 03:40:00 9.3 C 7.73 g/m*3 9.3 C 1.6 km/h
46 03-05-2019 03:45:00 9.3 C 7.73 g/m*3 9.3 C 0 km/h
47 03-05-2019 03:50:00 9.3 C 7.73 g/m*3 9.3 C 0 km/h
48 03-05-2019 03:55:00 9.3 C 7.82 g/m*3 9.3 C 0 km/h
49 03-05-2019 04:00:00 9.3 C 7.82 g/m*3 9.3 C 0 km/h
50 03-05-2019 04:05:00 9.2 C 7.77 g/m*3 9.2 C 0 km/h
Sensor: Nr:Datum:Temp:Abs-Feuchte:Windchill:Wind:
Aussen-T/F 51 03-05-2019 04:10:00 9.2 C 7.77 g/m*3 9.2 C 0 km/h
52 03-05-2019 04:15:00 9.2 C 7.77 g/m*3 9.2 C 0 km/h
53 03-05-2019 04:20:00 9.2 C 7.86 g/m*3 9.2 C 0 km/h
54 03-05-2019 04:25:00 9.2 C 7.86 g/m*3 9.2 C 0 km/h
55 03-05-2019 04:30:00 9.1 C 7.81 g/m*3 9.1 C 0 km/h
56 03-05-2019 04:35:00 9.1 C 7.81 g/m*3 9.1 C 0 km/h
57 03-05-2019 04:40:00 9.1 C 7.81 g/m*3 9.1 C 3.2 km/h
58 03-05-2019 04:45:00 9.1 C 7.81 g/m*3 9.1 C 0 km/h
59 03-05-2019 04:50:00 9.1 C 7.81 g/m*3 9.1 C 3.2 km/h
60 03-05-2019 04:55:00 9.2 C 7.86 g/m*3 9.2 C 0 km/h
61 03-05-2019 05:00:00 9.2 C 7.86 g/m*3 9.2 C 3.2 km/h
62 03-05-2019 05:05:00 9.2 C 7.86 g/m*3 9.2 C 1.6 km/h
63 03-05-2019 05:10:00 9.3 C 7.91 g/m*3 8.56 C 6.4 km/h
64 03-05-2019 05:15:00 9.3 C 7.91 g/m*3 8.56 C 6.4 km/h
65 03-05-2019 05:20:00 9.3 C 7.91 g/m*3 8.56 C 6.4 km/h
66 03-05-2019 05:25:00 9.3 C 7.91 g/m*3 9.3 C 0 km/h
67 03-05-2019 05:30:00 9.3 C 7.91 g/m*3 9.3 C 1.6 km/h
68 03-05-2019 05:35:00 9.3 C 7.91 g/m*3 9.3 C 3.2 km/h
69 03-05-2019 05:40:00 9.3 C 7.91 g/m*3 9.3 C 1.6 km/h
70 03-05-2019 05:45:00 9.3 C 7.91 g/m*3 9.3 C 3.2 km/h
71 03-05-2019 05:50:00 9.3 C 7.91 g/m*3 9.3 C 4.8 km/h
72 03-05-2019 05:55:00 9.3 C 7.91 g/m*3 9.3 C 3.2 km/h
73 03-05-2019 06:00:00 9.3 C 7.91 g/m*3 9.3 C 0 km/h
74 03-05-2019 06:05:00 9.3 C 7.91 g/m*3 8.56 C 6.4 km/h
75 03-05-2019 06:10:00 9.3 C 7.91 g/m*3 9.3 C 3.2 km/h
Sensor: Nr:Datum:Temp:Abs-Feuchte:Windchill:Wind:
Aussen-T/F 76 03-05-2019 06:15:00 9.2 C 7.86 g/m*3 9.2 C 4.8 km/h
77 03-05-2019 06:20:00 9.2 C 7.86 g/m*3 9.2 C 1.6 km/h
78 03-05-2019 06:25:00 9.2 C 7.86 g/m*3 9.2 C 3.2 km/h
79 03-05-2019 06:30:00 9.2 C 7.77 g/m*3 8.45 C 6.4 km/h
80 03-05-2019 06:35:00 9.2 C 7.77 g/m*3 8.05 C 8.1 km/h
81 03-05-2019 06:40:00 9.2 C 7.77 g/m*3 9.2 C 1.6 km/h
82 03-05-2019 06:45:00 9.3 C 7.91 g/m*3 9.3 C 1.6 km/h
83 03-05-2019 06:50:00 9.3 C 7.91 g/m*3 9.3 C 1.6 km/h
84 03-05-2019 06:55:00 9.3 C 7.91 g/m*3 9.3 C 3.2 km/h
85 03-05-2019 07:00:00 9.2 C 7.86 g/m*3 9.2 C 1.6 km/h
86 03-05-2019 07:05:00 9.2 C 7.77 g/m*3 9.2 C 4.8 km/h
87 03-05-2019 07:10:00 9.2 C 7.77 g/m*3 9.2 C 4.8 km/h
88 03-05-2019 07:15:00 9.2 C 7.68 g/m*3 8.45 C 6.4 km/h
89 03-05-2019 07:20:00 9.2 C 7.68 g/m*3 9.2 C 4.8 km/h
90 03-05-2019 07:25:00 9.3 C 7.73 g/m*3 8.16 C 8.1 km/h
91 03-05-2019 07:30:00 9.2 C 7.59 g/m*3 8.05 C 8.1 km/h
92 03-05-2019 07:35:00 9.3 C 7.64 g/m*3 9.3 C 0 km/h
93 03-05-2019 07:40:00 9.3 C 7.64 g/m*3 7.85 C 9.7 km/h
94 03-05-2019 07:45:00 9.3 C 7.64 g/m*3 8.16 C 8.1 km/h
95 03-05-2019 07:50:00 9.3 C 7.55 g/m*3 8.56 C 6.4 km/h
96 03-05-2019 07:55:00 9.3 C 7.55 g/m*3 9.3 C 4.8 km/h
97 03-05-2019 08:00:00 9.4 C 7.69 g/m*3 9.4 C 0 km/h
98 03-05-2019 08:05:00 9.5 C 7.74 g/m*3 8.79 C 6.4 km/h
99 03-05-2019 08:10:00 9.6 C 7.69 g/m*3 9.6 C 1.6 km/h
100 03-05-2019 08:15:00 9.7 C 7.74 g/m*3 8.63 C 8.1 km/h
Sensor: Nr:Datum:Temp:Abs-Feuchte:Windchill:Wind:
Aussen-T/F 101 03-05-2019 08:20:00 9.8 C 7.79 g/m*3 9.14 C 6.4 km/h
102 03-05-2019 08:25:00 9.8 C 7.79 g/m*3 9.14 C 6.4 km/h
103 03-05-2019 08:30:00 9.7 C 7.65 g/m*3 8.63 C 8.1 km/h
104 03-05-2019 08:35:00 9.7 C 7.65 g/m*3 9.02 C 6.4 km/h
105 03-05-2019 08:40:00 9.7 C 7.56 g/m*3 8.33 C 9.7 km/h
106 03-05-2019 08:45:00 9.6 C 7.6 g/m*3 9.6 C 1.6 km/h
107 03-05-2019 08:50:00 9.7 C 7.65 g/m*3 9.02 C 6.4 km/h
108 03-05-2019 08:55:00 9.7 C 7.56 g/m*3 8.63 C 8.1 km/h
109 03-05-2019 09:00:00 9.7 C 7.56 g/m*3 8.63 C 8.1 km/h
110 03-05-2019 09:05:00 9.8 C 7.61 g/m*3 7.73 C 14.5 km/h
111 03-05-2019 09:10:00 9.9 C 7.56 g/m*3 8.3 C 11.3 km/h
112 03-05-2019 09:15:00 10 C 7.52 g/m*3 8.68 C 9.7 km/h
113 03-05-2019 09:20:00 10.1 C 7.56 g/m*3 9.1 C 8.1 km/h
114 03-05-2019 09:25:00 10.1 C 7.56 g/m*3 8.31 C 12.9 km/h
115 03-05-2019 09:30:00 10.1 C 7.47 g/m*3 9.1 C 8.1 km/h
116 03-05-2019 09:35:00 10.1 C 7.47 g/m*3 9.1 C 8.1 km/h
117 03-05-2019 09:40:00 10.2 C 7.52 g/m*3 10.2 C 4.8 km/h
118 03-05-2019 09:45:00 10.3 C 7.47 g/m*3 9.04 C 9.7 km/h
119 03-05-2019 09:50:00 10.4 C 7.61 g/m*3 9.46 C 8.1 km/h
120 03-05-2019 09:55:00 10.6 C 7.32 g/m*3 9.4 C 9.7 km/h
121 03-05-2019 10:00:00 10.7 C 7.27 g/m*3 9.04 C 12.9 km/h
122 03-05-2019 10:05:00 10.7 C 7.17 g/m*3 9.04 C 12.9 km/h
123 03-05-2019 10:10:00 10.7 C 7.37 g/m*3 9.52 C 9.7 km/h
124 03-05-2019 10:15:00 10.7 C 7.37 g/m*3 9.26 C 11.3 km/h
125 03-05-2019 10:20:00 10.7 C 7.46 g/m*3 9.52 C 9.7 km/h
Sensor: Nr:Datum:Temp:Abs-Feuchte:Windchill:Wind:
Aussen-T/F 126 03-05-2019 10:25:00 10.7 C 7.27 g/m*3 9.26 C 11.3 km/h
127 03-05-2019 10:30:00 10.8 C 7.51 g/m*3 10.8 C 4.8 km/h
128 03-05-2019 10:35:00 10.9 C 7.36 g/m*3 9.08 C 14.5 km/h
129 03-05-2019 10:40:00 10.8 C 7.12 g/m*3 9.38 C 11.3 km/h
130 03-05-2019 10:45:00 10.8 C 7.22 g/m*3 9.38 C 11.3 km/h
131 03-05-2019 10:50:00 10.9 C 7.06 g/m*3 9.76 C 9.7 km/h
132 03-05-2019 10:55:00 11 C 7.21 g/m*3 9.21 C 14.5 km/h
133 03-05-2019 11:00:00 11.1 C 7.05 g/m*3 11.1 C 14.5 km/h
134 03-05-2019 11:05:00 11.1 C 6.95 g/m*3 11.1 C 12.9 km/h
135 03-05-2019 11:10:00 11.2 C 6.99 g/m*3 11.2 C 8.1 km/h
136 03-05-2019 11:15:00 11.3 C 7.14 g/m*3 11.3 C 9.7 km/h
137 03-05-2019 11:20:00 11.4 C 7.08 g/m*3 11.4 C 6.4 km/h
138 03-05-2019 11:25:00 11.4 C 6.98 g/m*3 11.4 C 8.1 km/h
139 03-05-2019 11:30:00 11.3 C 6.94 g/m*3 11.3 C 8.1 km/h
140 03-05-2019 11:35:00 11.1 C 6.95 g/m*3 11.1 C 12.9 km/h
141 03-05-2019 11:40:00 10.9 C 6.86 g/m*3 9.51 C 11.3 km/h
142 03-05-2019 11:45:00 10.9 C 6.96 g/m*3 9.51 C 11.3 km/h
143 03-05-2019 11:50:00 11.1 C 6.95 g/m*3 11.1 C 11.3 km/h
144 03-05-2019 11:55:00 11.2 C 6.99 g/m*3 11.2 C 12.9 km/h
145 03-05-2019 12:00:00 11.1 C 6.95 g/m*3 11.1 C 8.1 km/h
146 03-05-2019 12:05:00 11 C 6.91 g/m*3 9.88 C 9.7 km/h
147 03-05-2019 12:10:00 10.9 C 6.96 g/m*3 10.41 C 6.4 km/h
148 03-05-2019 12:15:00 10.9 C 6.86 g/m*3 10.04 C 8.1 km/h
149 03-05-2019 12:20:00 10.9 C 6.86 g/m*3 9.76 C 9.7 km/h
150 03-05-2019 12:25:00 11.1 C 7.05 g/m*3 11.1 C 4.8 km/h
Sensor: Nr:Datum:Temp:Abs-Feuchte:Windchill:Wind:
Aussen-T/F 151 03-05-2019 12:30:00 11.3 C 7.24 g/m*3 11.3 C 9.7 km/h
152 03-05-2019 12:35:00 11.6 C 7.38 g/m*3 11.6 C 8.1 km/h
153 03-05-2019 12:40:00 11.8 C 7.05 g/m*3 11.8 C 9.7 km/h
154 03-05-2019 12:45:00 11.8 C 7.16 g/m*3 11.8 C 9.7 km/h
155 03-05-2019 12:50:00 11.9 C 7.1 g/m*3 11.9 C 11.3 km/h
156 03-05-2019 12:55:00 11.8 C 7.05 g/m*3 11.8 C 8.1 km/h
157 03-05-2019 13:00:00 11.8 C 7.05 g/m*3 11.8 C 9.7 km/h
158 03-05-2019 13:05:00 11.8 C 6.95 g/m*3 11.8 C 9.7 km/h
159 03-05-2019 13:10:00 11.8 C 6.95 g/m*3 11.8 C 4.8 km/h
160 03-05-2019 13:15:00 11.8 C 6.95 g/m*3 11.8 C 9.7 km/h
161 03-05-2019 13:20:00 11.9 C 6.88 g/m*3 11.9 C 8.1 km/h
162 03-05-2019 13:25:00 12.1 C 7.08 g/m*3 12.1 C 9.7 km/h
163 03-05-2019 13:30:00 12.2 C 7.12 g/m*3 12.2 C 14.5 km/h
164 03-05-2019 13:35:00 12.3 C 7.17 g/m*3 12.3 C 6.4 km/h
165 03-05-2019 13:40:00 12.4 C 6.99 g/m*3 12.4 C 12.9 km/h
166 03-05-2019 13:45:00 12.3 C 6.95 g/m*3 12.3 C 8.1 km/h
167 03-05-2019 13:50:00 12.2 C 6.91 g/m*3 12.2 C 14.5 km/h
168 03-05-2019 13:55:00 12.3 C 7.28 g/m*3 12.3 C 11.3 km/h
169 03-05-2019 14:00:00 12.6 C 7.19 g/m*3 12.6 C 8.1 km/h
170 03-05-2019 14:05:00 12.8 C 6.94 g/m*3 12.8 C 12.9 km/h
171 03-05-2019 14:10:00 12.9 C 6.88 g/m*3 12.9 C 12.9 km/h
172 03-05-2019 14:15:00 12.9 C 6.76 g/m*3 12.9 C 12.9 km/h
173 03-05-2019 14:20:00 12.7 C 6.79 g/m*3 12.7 C 12.9 km/h
174 03-05-2019 14:25:00 12.7 C 6.57 g/m*3 12.7 C 14.5 km/h
175 03-05-2019 14:30:00 12.7 C 6.68 g/m*3 12.7 C 14.5 km/h
Sensor: Nr:Datum:Temp:Abs-Feuchte:Windchill:Wind:
Aussen-T/F 176 03-05-2019 14:35:00 12.8 C 6.72 g/m*3 12.8 C 12.9 km/h
177 03-05-2019 14:40:00 13.1 C 6.73 g/m*3 13.1 C 16.1 km/h
178 03-05-2019 14:45:00 13.3 C 6.47 g/m*3 13.3 C 22.5 km/h
179 03-05-2019 14:50:00 13.7 C 6.63 g/m*3 13.7 C 17.7 km/h
180 03-05-2019 14:55:00 13.6 C 6.47 g/m*3 13.6 C 20.9 km/h
181 03-05-2019 15:00:00 13.3 C 6.35 g/m*3 13.3 C 12.9 km/h
182 03-05-2019 15:05:00 13.3 C 6.47 g/m*3 13.3 C 16.1 km/h
183 03-05-2019 15:10:00 13.7 C 6.39 g/m*3 13.7 C 17.7 km/h
184 03-05-2019 15:15:00 13.9 C 6.23 g/m*3 13.9 C 16.1 km/h
185 03-05-2019 15:20:00 14.3 C 6.51 g/m*3 14.3 C 22.5 km/h
186 03-05-2019 15:25:00 14.3 C 6.51 g/m*3 14.3 C 20.9 km/h
187 03-05-2019 15:30:00 14.3 C 6.51 g/m*3 14.3 C 9.7 km/h
188 03-05-2019 15:35:00 14.4 C 6.68 g/m*3 14.4 C 11.3 km/h
189 03-05-2019 15:40:00 14.9 C 6.75 g/m*3 14.9 C 11.3 km/h
190 03-05-2019 15:45:00 15.2 C 6.75 g/m*3 15.2 C 17.7 km/h
191 03-05-2019 15:50:00 15.4 C 6.57 g/m*3 15.4 C 11.3 km/h
192 03-05-2019 15:55:00 15.6 C 6.65 g/m*3 15.6 C 12.9 km/h
193 03-05-2019 16:00:00 15.6 C 6.52 g/m*3 15.6 C 16.1 km/h
194 03-05-2019 16:05:00 15.3 C 6.53 g/m*3 15.3 C 12.9 km/h
195 03-05-2019 16:10:00 15.4 C 6.57 g/m*3 15.4 C 14.5 km/h
196 03-05-2019 16:15:00 15.4 C 6.44 g/m*3 15.4 C 17.7 km/h
197 03-05-2019 16:20:00 15.3 C 6.53 g/m*3 15.3 C 12.9 km/h
198 03-05-2019 16:25:00 15 C 6.54 g/m*3 15 C 16.1 km/h
199 03-05-2019 16:30:00 14.7 C 6.42 g/m*3 14.7 C 14.5 km/h
200 03-05-2019 16:35:00 14.3 C 6.39 g/m*3 14.3 C 11.3 km/h
Sensor: Nr:Datum:Temp:Abs-Feuchte:Windchill:Wind:
Aussen-T/F 201 03-05-2019 16:40:00 14.1 C 6.43 g/m*3 14.1 C 11.3 km/h
202 03-05-2019 16:45:00 14.4 C 6.68 g/m*3 14.4 C 8.1 km/h
203 03-05-2019 16:50:00 15.2 C 6.88 g/m*3 15.2 C 14.5 km/h
204 03-05-2019 16:55:00 15.3 C 6.53 g/m*3 15.3 C 8.1 km/h
205 03-05-2019 17:00:00 15.2 C 6.62 g/m*3 15.2 C 11.3 km/h
206 03-05-2019 17:05:00 15.1 C 6.84 g/m*3 15.1 C 12.9 km/h
207 03-05-2019 17:10:00 14.8 C 6.33 g/m*3 14.8 C 16.1 km/h
208 03-05-2019 17:15:00 14.5 C 6.47 g/m*3 14.5 C 17.7 km/h
209 03-05-2019 17:20:00 14.2 C 6.35 g/m*3 14.2 C 14.5 km/h
210 03-05-2019 17:25:00 14 C 6.51 g/m*3 14 C 12.9 km/h
211 03-05-2019 17:30:00 13.8 C 6.67 g/m*3 13.8 C 14.5 km/h
212 03-05-2019 17:35:00 13.8 C 6.67 g/m*3 13.8 C 12.9 km/h
213 03-05-2019 17:40:00 13.7 C 6.63 g/m*3 13.7 C 16.1 km/h
214 03-05-2019 17:45:00 13.5 C 6.55 g/m*3 13.5 C 9.7 km/h
215 03-05-2019 17:50:00 13.5 C 6.55 g/m*3 13.5 C 11.3 km/h
216 03-05-2019 17:55:00 13.4 C 6.39 g/m*3 13.4 C 12.9 km/h
217 03-05-2019 18:00:00 13.3 C 6.47 g/m*3 13.3 C 11.3 km/h
218 03-05-2019 18:05:00 13.4 C 6.51 g/m*3 13.4 C 11.3 km/h
219 03-05-2019 18:10:00 13.6 C 6.71 g/m*3 13.6 C 11.3 km/h
220 03-05-2019 18:15:00 13.9 C 6.59 g/m*3 13.9 C 11.3 km/h
221 03-05-2019 18:20:00 14 C 6.63 g/m*3 14 C 11.3 km/h
222 03-05-2019 18:25:00 13.9 C 6.59 g/m*3 13.9 C 11.3 km/h
223 03-05-2019 18:30:00 13.8 C 6.67 g/m*3 13.8 C 9.7 km/h
224 03-05-2019 18:35:00 13.8 C 6.67 g/m*3 13.8 C 8.1 km/h
225 03-05-2019 18:40:00 13.7 C 6.75 g/m*3 13.7 C 8.1 km/h
Sensor: Nr:Datum:Temp:Abs-Feuchte:Windchill:Wind:
Aussen-T/F 226 03-05-2019 18:45:00 13.6 C 6.71 g/m*3 13.6 C 11.3 km/h
227 03-05-2019 18:50:00 13.4 C 6.74 g/m*3 13.4 C 6.4 km/h
228 03-05-2019 18:55:00 13.3 C 6.7 g/m*3 13.3 C 11.3 km/h
229 03-05-2019 19:00:00 13.1 C 6.73 g/m*3 13.1 C 8.1 km/h
230 03-05-2019 19:05:00 12.9 C 6.65 g/m*3 12.9 C 11.3 km/h
231 03-05-2019 19:10:00 12.7 C 6.57 g/m*3 12.7 C 8.1 km/h
232 03-05-2019 19:15:00 12.6 C 6.64 g/m*3 12.6 C 8.1 km/h
233 03-05-2019 19:20:00 12.5 C 6.71 g/m*3 12.5 C 9.7 km/h
234 03-05-2019 19:25:00 12.4 C 6.56 g/m*3 12.4 C 6.4 km/h
235 03-05-2019 19:30:00 12.4 C 6.56 g/m*3 12.4 C 6.4 km/h
236 03-05-2019 19:35:00 12.3 C 6.41 g/m*3 12.3 C 8.1 km/h
237 03-05-2019 19:40:00 12.2 C 6.37 g/m*3 12.2 C 9.7 km/h
238 03-05-2019 19:45:00 12 C 6.5 g/m*3 12 C 6.4 km/h
239 03-05-2019 19:50:00 11.9 C 6.46 g/m*3 11.9 C 9.7 km/h
240 03-05-2019 19:55:00 11.8 C 6.53 g/m*3 11.8 C 4.8 km/h
241 03-05-2019 20:00:00 11.7 C 6.48 g/m*3 11.7 C 4.8 km/h
242 03-05-2019 20:05:00 11.7 C 6.48 g/m*3 11.7 C 4.8 km/h
243 03-05-2019 20:10:00 11.6 C 6.44 g/m*3 11.6 C 9.7 km/h
244 03-05-2019 20:15:00 11.5 C 6.51 g/m*3 11.5 C 3.2 km/h
245 03-05-2019 20:20:00 11.4 C 6.47 g/m*3 11.4 C 6.4 km/h
246 03-05-2019 20:25:00 11.3 C 6.53 g/m*3 11.3 C 3.2 km/h
247 03-05-2019 20:30:00 11.3 C 6.53 g/m*3 11.3 C 4.8 km/h
248 03-05-2019 20:35:00 11.2 C 6.59 g/m*3 11.2 C 11.3 km/h
249 03-05-2019 20:40:00 11 C 6.51 g/m*3 9.63 C 11.3 km/h
250 03-05-2019 20:45:00 10.7 C 6.48 g/m*3 9.26 C 11.3 km/h
Sensor: Nr:Datum:Temp:Abs-Feuchte:Windchill:Wind:
Aussen-T/F 251 03-05-2019 20:50:00 10.5 C 6.5 g/m*3 9.57 C 8.1 km/h
252 03-05-2019 20:55:00 10.3 C 6.51 g/m*3 9.34 C 8.1 km/h
253 03-05-2019 21:00:00 10.2 C 6.47 g/m*3 9.6 C 6.4 km/h
254 03-05-2019 21:05:00 10.1 C 6.52 g/m*3 8.8 C 9.7 km/h
255 03-05-2019 21:10:00 10 C 6.48 g/m*3 8.99 C 8.1 km/h
256 03-05-2019 21:15:00 9.9 C 6.44 g/m*3 9.25 C 6.4 km/h
257 03-05-2019 21:20:00 9.9 C 6.54 g/m*3 9.9 C 4.8 km/h
258 03-05-2019 21:25:00 9.8 C 6.49 g/m*3 9.8 C 4.8 km/h
259 03-05-2019 21:30:00 9.8 C 6.59 g/m*3 9.8 C 4.8 km/h
260 03-05-2019 21:35:00 9.8 C 6.59 g/m*3 9.8 C 3.2 km/h
261 03-05-2019 21:40:00 9.8 C 6.59 g/m*3 9.8 C 3.2 km/h
262 03-05-2019 21:45:00 9.8 C 6.59 g/m*3 9.8 C 0 km/h
263 03-05-2019 21:50:00 9.7 C 6.55 g/m*3 9.7 C 1.6 km/h
264 03-05-2019 21:55:00 9.7 C 6.64 g/m*3 9.7 C 4.8 km/h
265 03-05-2019 22:00:00 9.7 C 6.64 g/m*3 9.7 C 1.6 km/h
266 03-05-2019 22:05:00 9.7 C 6.64 g/m*3 9.7 C 0 km/h
267 03-05-2019 22:10:00 9.6 C 6.69 g/m*3 9.6 C 0 km/h
268 03-05-2019 22:15:00 9.6 C 6.78 g/m*3 9.6 C 0 km/h
269 03-05-2019 22:20:00 9.5 C 6.74 g/m*3 9.5 C 3.2 km/h
270 03-05-2019 22:25:00 9.4 C 6.87 g/m*3 9.4 C 1.6 km/h
271 03-05-2019 22:30:00 9.3 C 6.74 g/m*3 8.56 C 6.4 km/h
272 03-05-2019 22:35:00 9.2 C 6.7 g/m*3 8.45 C 6.4 km/h
273 03-05-2019 22:40:00 9.2 C 6.79 g/m*3 9.2 C 3.2 km/h
274 03-05-2019 22:45:00 9.1 C 6.65 g/m*3 7.93 C 8.1 km/h
275 03-05-2019 22:50:00 9.1 C 6.65 g/m*3 9.1 C 3.2 km/h
Sensor: Nr:Datum:Temp:Abs-Feuchte:Windchill:Wind:
Aussen-T/F 276 03-05-2019 22:55:00 9.1 C 6.65 g/m*3 9.1 C 3.2 km/h
277 03-05-2019 23:00:00 9.1 C 6.74 g/m*3 9.1 C 3.2 km/h
278 03-05-2019 23:05:00 8.9 C 6.66 g/m*3 8.9 C 3.2 km/h
279 03-05-2019 23:10:00 8.9 C 6.75 g/m*3 8.9 C 3.2 km/h
280 03-05-2019 23:15:00 8.9 C 6.75 g/m*3 8.9 C 0 km/h
281 03-05-2019 23:20:00 8.8 C 6.79 g/m*3 8.8 C 0 km/h
282 03-05-2019 23:25:00 8.7 C 6.83 g/m*3 8.7 C 0 km/h
283 03-05-2019 23:30:00 8.6 C 6.79 g/m*3 8.6 C 0 km/h
284 03-05-2019 23:35:00 8.6 C 6.87 g/m*3 8.6 C 0 km/h
285 03-05-2019 23:40:00 8.4 C 6.79 g/m*3 8.4 C 0 km/h
286 03-05-2019 23:45:00 8.4 C 6.79 g/m*3 8.4 C 0 km/h
287 03-05-2019 23:50:00 8.3 C 6.83 g/m*3 8.3 C 0 km/h
288 03-05-2019 23:55:00 8.3 C 6.74 g/m*3 8.3 C 0 km/h

Legende:
   Min
   Max


Maximal/Minimal-Werte vom 03.05.2019 - 03.05.2019

Sensor Min Max Avg
Temp
(Aussen-T/F)
8.3 °C
03-05-2019  23:50:00
15.6 °C
03-05-2019  15:55:00
11 °C
Abs-Feuchte
(Aussen-T/F)
6.23 g/m*3
03-05-2019  15:15:00
9.08 g/m*3
03-05-2019  00:00:00
7.22 g/m*3
Windchill
(Aussen-T/F)
7.48 C
03-05-2019  02:50:00
15.6 C
03-05-2019  15:55:00
10.65 C

Die Daten stammen von einer Davis Vantage Pro 2 Wetter-Station und werden unter Linux mit der Software wview2wettercgi und aufbereitet. Alle Angaben erfolgen ohne Gewähr für ihre Vollständigkeit oder Richtigkeit.
Kontakt: Rainer Krienke krienke@uni-koblenz.de . Meine Webseiten an der Uni Koblenz oder privat.
Version: $Revision: 0.78 $